Wilson Algeciras — 9HA2471 — position and weather

sailwx.info

Track history (hours):
 
Tides and Currents Weather Stations Pressure Air Temp Water Temp Dewpoint Dewpoint Depression Visibility Wind Speed Wind Dir Waves Ship Positions

Wilson Algeciras

Last reported at 2015-Aug-14 14:30 UTC. Time now 2015-Sep-01 14:09 UTC.
Position N 39°15' W 010°03'.
Warning: this ship's position is 17 days out of date.

Length 88 m; draft 5.3 m.

Type: Cargo ship. MMSI: 248689000.

Date/timePositionNaut miles runAvg speedWind from/ knotsBaromVisibWave heightAir tempDewpointWater temp
2015-Aug-14 14:30N 39°15' W 010°03'9 9.0
2015-Aug-14 13:33N 39°07' W 009°59'9 8.9
2015-Aug-14 12:33N 38°59' W 009°56'9 8.7
2015-Aug-14 11:33N 38°50' W 009°53'9 8.5
2015-Aug-14 10:33N 38°42' W 009°52'8 8.1
2015-Aug-14 09:33N 38°34' W 009°50'8 7.9
2015-Aug-14 08:33N 38°26' W 009°47'8 8.1
2015-Aug-14 07:33N 38°18' W 009°45'8 8.0
2015-Aug-14 06:33N 38°11' W 009°43'  
2015-Aug-11 13:25N 36°17' W 002°28'150 8.9
2015-Aug-10 20:33N 36°41' E 000°37'9 8.8
2015-Aug-10 19:33N 36°43' E 000°48'12 8.6
2015-Aug-10 18:11N 36°45' E 001°02'5 8.6
2015-Aug-10 17:34N 36°45' E 001°09'9 9.1
2015-Aug-10 16:33N 36°47' E 001°20'9 9.5
2015-Aug-10 15:34N 36°49' E 001°32'10 9.7
2015-Aug-10 14:33N 36°50' E 001°44'10 9.6
2015-Aug-10 13:34N 36°51' E 001°55'19 9.2
2015-Aug-10 11:32N 36°54' E 002°18'9 9.1
2015-Aug-10 10:33N 36°56' E 002°29'11 8.9
2015-Aug-10 09:20N 36°58' E 002°43'11 8.8
2015-Aug-10 08:08N 36°59' E 002°56'5 8.6
2015-Aug-10 07:31N 37°00' E 003°02'8 8.5
2015-Aug-10 06:33N 37°02' E 003°13'300 8.8
2015-Aug-08 20:32N 37°38' E 009°27'9 8.7
2015-Aug-08 19:33N 37°39' E 009°38'9 8.8
2015-Aug-08 18:33N 37°39' E 009°49'9 8.8
2015-Aug-08 17:32N 37°39' E 010°00'9 8.9
2015-Aug-08 16:33N 37°39' E 010°11'8 8.6
2015-Aug-08 15:33N 37°37' E 010°22'8 8.5
2015-Aug-08 14:33N 37°34' E 010°32'8 8.3
2015-Aug-08 13:33N 37°33' E 010°42'8 8.4
2015-Aug-08 12:33N 37°31' E 010°53'8 8.4
2015-Aug-08 11:33N 37°29' E 011°03'9 8.6
2015-Aug-08 10:32N 37°25' E 011°13'8 8.4
2015-Aug-08 09:33N 37°20' E 011°21'9 8.6
2015-Aug-08 08:33N 37°12' E 011°24'9 8.7
2015-Aug-08 07:32N 37°03' E 011°27'81 8.2
2015-Aug-07 21:33N 35°50' E 010°42'3 1.2
2015-Aug-07 19:23N 35°50' E 010°39'0 0.0
2015-Aug-07 09:14N 35°50' E 010°39'0 0.0
2015-Aug-07 08:17N 35°50' E 010°39'1 2.0
2015-Aug-07 07:34N 35°50' E 010°40'110 6.8
2015-Aug-06 15:22N 34°08' E 011°33'42 8.8
2015-Aug-06 10:34N 33°29' E 011°14'5 0.8
2015-Aug-06 03:27N 33°29' E 011°07'0 0.0
2015-Aug-06 02:33N 33°29' E 011°07'0 0.0
2015-Aug-06 01:33N 33°29' E 011°07'0 0.0
2015-Aug-05 23:33N 33°29' E 011°07'0 0.0
2015-Aug-05 18:18N 33°29' E 011°07'0 0.0
2015-Aug-05 16:24N 33°29' E 011°07'  
Track history (hours):
 
Tides and Currents Weather Stations Pressure Air Temp Water Temp Dewpoint Dewpoint Depression Visibility Wind Speed Wind Dir Waves Ship Positions

Wilson Algeciras

Last reported at 2015-Aug-14 14:30 UTC. Time now 2015-Sep-01 14:09 UTC.
Position N 39°15' W 010°03'.
Warning: this ship's position is 17 days out of date.

Length 88 m; draft 5.3 m.

Type: Cargo ship. MMSI: 248689000.

Date/timePositionNaut miles runAvg speedWind from/ knotsBaromVisibWave heightAir tempDewpointWater temp
2015-Aug-14 14:30N 39°15' W 010°03'9 9.0
2015-Aug-14 13:33N 39°07' W 009°59'9 8.9
2015-Aug-14 12:33N 38°59' W 009°56'9 8.7
2015-Aug-14 11:33N 38°50' W 009°53'9 8.5
2015-Aug-14 10:33N 38°42' W 009°52'8 8.1
2015-Aug-14 09:33N 38°34' W 009°50'8 7.9
2015-Aug-14 08:33N 38°26' W 009°47'8 8.1
2015-Aug-14 07:33N 38°18' W 009°45'8 8.0
2015-Aug-14 06:33N 38°11' W 009°43'  
2015-Aug-11 13:25N 36°17' W 002°28'150 8.9
2015-Aug-10 20:33N 36°41' E 000°37'9 8.8
2015-Aug-10 19:33N 36°43' E 000°48'12 8.6
2015-Aug-10 18:11N 36°45' E 001°02'5 8.6
2015-Aug-10 17:34N 36°45' E 001°09'9 9.1
2015-Aug-10 16:33N 36°47' E 001°20'9 9.5
2015-Aug-10 15:34N 36°49' E 001°32'10 9.7
2015-Aug-10 14:33N 36°50' E 001°44'10 9.6
2015-Aug-10 13:34N 36°51' E 001°55'19 9.2
2015-Aug-10 11:32N 36°54' E 002°18'9 9.1
2015-Aug-10 10:33N 36°56' E 002°29'11 8.9
2015-Aug-10 09:20N 36°58' E 002°43'11 8.8
2015-Aug-10 08:08N 36°59' E 002°56'5 8.6
2015-Aug-10 07:31N 37°00' E 003°02'8 8.5
2015-Aug-10 06:33N 37°02' E 003°13'300 8.8
2015-Aug-08 20:32N 37°38' E 009°27'9 8.7
2015-Aug-08 19:33N 37°39' E 009°38'9 8.8
2015-Aug-08 18:33N 37°39' E 009°49'9 8.8
2015-Aug-08 17:32N 37°39' E 010°00'9 8.9
2015-Aug-08 16:33N 37°39' E 010°11'8 8.6
2015-Aug-08 15:33N 37°37' E 010°22'8 8.5
2015-Aug-08 14:33N 37°34' E 010°32'8 8.3
2015-Aug-08 13:33N 37°33' E 010°42'8 8.4
2015-Aug-08 12:33N 37°31' E 010°53'8 8.4
2015-Aug-08 11:33N 37°29' E 011°03'9 8.6
2015-Aug-08 10:32N 37°25' E 011°13'8 8.4
2015-Aug-08 09:33N 37°20' E 011°21'9 8.6
2015-Aug-08 08:33N 37°12' E 011°24'9 8.7
2015-Aug-08 07:32N 37°03' E 011°27'81 8.2
2015-Aug-07 21:33N 35°50' E 010°42'3 1.2
2015-Aug-07 19:23N 35°50' E 010°39'0 0.0
2015-Aug-07 09:14N 35°50' E 010°39'0 0.0
2015-Aug-07 08:17N 35°50' E 010°39'1 2.0
2015-Aug-07 07:34N 35°50' E 010°40'110 6.8
2015-Aug-06 15:22N 34°08' E 011°33'42 8.8
2015-Aug-06 10:34N 33°29' E 011°14'5 0.8
2015-Aug-06 03:27N 33°29' E 011°07'0 0.0
2015-Aug-06 02:33N 33°29' E 011°07'0 0.0
2015-Aug-06 01:33N 33°29' E 011°07'0 0.0
2015-Aug-05 23:33N 33°29' E 011°07'0 0.0
2015-Aug-05 18:18N 33°29' E 011°07'0 0.0
2015-Aug-05 16:24N 33°29' E 011°07'  

Dump ship's entire track history